createdAt,value
2022-12-01T00:08:05.878Z,0.36
2022-12-01T00:18:10.953Z,0.35
2022-12-01T00:28:14.599Z,0.24
2022-12-01T00:38:19.167Z,0.28
2022-12-01T00:48:23.778Z,0.41
2022-12-01T00:58:27.938Z,0.39
2022-12-01T01:08:31.912Z,0.41
2022-12-01T01:18:35.676Z,0.43
2022-12-01T01:28:41.895Z,0.45
2022-12-01T01:38:46.688Z,0.37
2022-12-01T01:49:08.177Z,0.35
2022-12-01T01:59:15.572Z,0.32
2022-12-01T02:09:19.222Z,0.30
2022-12-01T02:19:41.567Z,0.29
2022-12-01T02:30:12.862Z,0.29
2022-12-01T02:40:34.339Z,0.26
2022-12-01T02:50:41.184Z,0.27
2022-12-01T03:00:54.357Z,0.30
2022-12-01T03:11:00.095Z,0.28
2022-12-01T03:21:13.659Z,0.32
2022-12-01T03:31:21.682Z,0.35
2022-12-01T03:41:32.070Z,0.38
2022-12-01T03:51:45.317Z,0.43
2022-12-01T04:01:50.123Z,0.47
2022-12-01T04:12:12.915Z,0.47
2022-12-01T04:22:16.669Z,0.50
2022-12-01T04:32:20.764Z,0.50
2022-12-01T04:42:24.610Z,0.52
2022-12-01T04:52:32.127Z,0.55
2022-12-01T05:02:43.581Z,0.60
2022-12-01T05:12:47.857Z,0.63
2022-12-01T05:23:10.773Z,0.65
2022-12-01T05:33:16.612Z,0.65
2022-12-01T05:43:28.332Z,0.65
2022-12-01T05:53:33.150Z,0.70
2022-12-01T06:03:37.225Z,0.72
2022-12-01T06:13:41.160Z,0.71
2022-12-01T06:23:45.163Z,0.67
2022-12-01T06:33:49.039Z,0.64
2022-12-01T06:43:53.512Z,0.63
2022-12-01T06:54:02.215Z,0.65
2022-12-01T07:04:09.557Z,0.72
2022-12-01T07:14:25.308Z,0.75
2022-12-01T07:24:30.406Z,0.77
2022-12-01T07:34:34.862Z,0.77
2022-12-01T07:44:38.419Z,0.82
2022-12-01T07:54:42.496Z,0.87
2022-12-01T08:04:46.265Z,0.88
2022-12-01T08:14:50.126Z,0.95
2022-12-01T08:24:53.890Z,1.02
2022-12-01T08:34:57.799Z,1.13
2022-12-01T08:45:01.563Z,1.17
2022-12-01T08:55:06.593Z,1.21
2022-12-01T09:05:11.321Z,1.34
2022-12-01T09:15:15.406Z,1.34
2022-12-01T09:25:19.252Z,1.34
2022-12-01T09:35:23.653Z,1.32
2022-12-01T09:45:32.352Z,1.29
2022-12-01T09:55:37.242Z,1.34
2022-12-01T10:06:25.089Z,1.42
2022-12-01T10:16:38.985Z,1.47
2022-12-01T10:26:54.100Z,1.54
2022-12-01T10:36:59.363Z,1.58
2022-12-01T10:47:03.998Z,1.64
2022-12-01T10:57:16.485Z,1.60
2022-12-01T11:07:30.452Z,1.55
2022-12-01T11:17:45.256Z,1.57
2022-12-01T11:27:54.588Z,1.52
2022-12-01T11:48:30.100Z,1.48
2022-12-01T11:58:34.162Z,1.41
2022-12-01T12:09:18.298Z,1.36
2022-12-01T12:20:00.252Z,1.30
2022-12-01T12:30:28.757Z,1.28
2022-12-01T12:40:44.173Z,1.23
2022-12-01T12:51:04.041Z,1.18
2022-12-01T13:01:16.870Z,1.16
2022-12-01T13:11:27.634Z,1.07
2022-12-01T13:21:37.930Z,0.95
2022-12-01T13:31:45.226Z,0.93
2022-12-01T13:42:03.191Z,0.97
2022-12-01T13:52:22.534Z,0.95
2022-12-01T14:02:35.570Z,0.82
2022-12-01T14:12:42.539Z,0.76
2022-12-01T14:22:50.630Z,0.69
2022-12-01T14:33:33.219Z,0.69
2022-12-01T14:44:00.877Z,0.65
2022-12-01T14:54:12.734Z,0.65
2022-12-01T15:04:16.375Z,0.62
2022-12-01T15:14:34.061Z,0.64
2022-12-01T15:24:37.933Z,0.60
2022-12-01T15:34:44.601Z,0.58
2022-12-01T15:45:00.561Z,0.59
2022-12-01T15:55:05.778Z,0.53
2022-12-01T16:05:09.582Z,0.52
2022-12-01T16:15:18.724Z,0.49
2022-12-01T16:25:32.975Z,0.47
2022-12-01T16:35:36.944Z,0.44
2022-12-01T16:45:40.755Z,0.43
2022-12-01T16:55:52.615Z,0.48
2022-12-01T17:06:00.962Z,0.52
2022-12-01T17:16:07.972Z,0.52
2022-12-01T17:26:18.600Z,0.49
2022-12-01T17:36:23.688Z,0.48
2022-12-01T17:46:28.661Z,0.47
2022-12-01T17:56:33.480Z,0.42
2022-12-01T18:06:39.037Z,0.41
2022-12-01T18:16:50.580Z,0.44
2022-12-01T18:26:57.686Z,0.44
2022-12-01T18:37:06.958Z,0.38
2022-12-01T18:47:12.832Z,0.38
2022-12-01T18:57:20.997Z,0.38
2022-12-01T19:07:43.184Z,0.32
2022-12-01T19:17:52.241Z,0.33
2022-12-01T19:27:58.886Z,0.35
2022-12-01T19:38:06.102Z,0.31
2022-12-01T19:48:10.817Z,0.27
2022-12-01T19:58:16.199Z,0.24
2022-12-01T20:08:21.803Z,0.22
2022-12-01T20:18:27.930Z,0.23
2022-12-01T20:28:35.218Z,0.25
2022-12-01T20:38:42.683Z,0.29
2022-12-01T20:48:48.127Z,0.25
2022-12-01T20:58:54.237Z,0.26
2022-12-01T21:09:00.138Z,0.18
2022-12-01T21:19:14.579Z,0.14
2022-12-01T21:29:40.799Z,0.13
2022-12-01T21:39:45.558Z,0.11
2022-12-01T21:50:00.392Z,0.12
2022-12-01T22:00:30.732Z,0.14
2022-12-01T22:10:52.098Z,0.20
2022-12-01T22:20:57.252Z,0.19
2022-12-01T22:31:02.558Z,0.13
2022-12-01T22:41:12.515Z,0.06
2022-12-01T22:51:40.537Z,0.10
2022-12-01T23:01:51.633Z,0.21
2022-12-01T23:12:16.645Z,0.22
2022-12-01T23:22:20.918Z,0.09
2022-12-01T23:32:24.471Z,0.05
2022-12-01T23:42:28.436Z,0.01
2022-12-01T23:52:36.912Z,-0.03
